createdAt,value
2017-04-25T00:00:03.188Z,99.21
2017-04-25T00:05:03.232Z,98.69
2017-04-25T00:10:02.860Z,97.74
2017-04-25T00:15:03.729Z,96.79
2017-04-25T00:20:03.494Z,95.94
2017-04-25T00:25:03.219Z,94.51
2017-04-25T00:30:02.952Z,93.32
2017-04-25T00:35:03.661Z,92.37
2017-04-25T00:40:03.523Z,91.04
2017-04-25T00:45:03.216Z,90.28
2017-04-25T00:50:02.879Z,89.05
2017-04-25T00:55:03.526Z,88.39
2017-04-25T01:00:03.140Z,87.53
2017-04-25T01:05:09.808Z,87.05
2017-04-25T01:10:03.526Z,87.24
2017-04-25T01:15:03.119Z,86.77
2017-04-25T01:20:03.737Z,87.24
2017-04-25T01:25:03.343Z,86.77
2017-04-25T01:30:03.090Z,85.53
2017-04-25T01:35:03.697Z,85.72
2017-04-25T01:40:03.358Z,85.82
2017-04-25T01:45:03.162Z,86.49
2017-04-25T01:50:02.964Z,86.11
2017-04-25T01:55:03.711Z,85.53
2017-04-25T02:00:03.389Z,85.82
2017-04-25T02:05:02.994Z,86.2
2017-04-25T02:10:02.799Z,86.2
2017-04-25T02:15:03.550Z,86.72
2017-04-25T02:20:03.243Z,88.34
2017-04-25T02:25:02.824Z,87.96
2017-04-25T02:30:03.572Z,87.77
2017-04-25T02:35:03.276Z,87.3
2017-04-25T02:40:02.988Z,87.58
2017-04-25T02:45:03.593Z,87.68
2017-04-25T02:50:03.214Z,88.24
2017-04-25T02:55:02.987Z,88.06
2017-04-25T03:00:02.745Z,87.58
2017-04-25T03:05:03.507Z,87.2
2017-04-25T03:10:03.404Z,87.11
2017-04-25T03:15:03.213Z,86.07
2017-04-25T03:20:02.927Z,85.87
2017-04-25T03:25:03.632Z,84.83
2017-04-25T03:30:03.173Z,85.11
2017-04-25T03:35:02.890Z,85.78
2017-04-25T03:40:03.501Z,85.97
2017-04-25T03:45:03.129Z,86.35
2017-04-25T03:50:02.742Z,86.63
2017-04-25T03:55:03.631Z,86.07
2017-04-25T04:00:03.229Z,86.35
2017-04-25T04:05:02.839Z,86.63
2017-04-25T04:10:03.605Z,87.77
2017-04-25T04:15:03.519Z,89.86
2017-04-25T04:20:03.101Z,91.56
2017-04-25T04:25:03.713Z,93.27
2017-04-25T04:30:03.705Z,95.74
2017-04-25T04:35:03.450Z,97.55
2017-04-25T04:40:03.295Z,99.35
2017-04-25T04:45:03.104Z,99.99
2017-04-25T04:50:02.820Z,99.99
2017-04-25T04:55:03.527Z,99.99
2017-04-25T05:00:03.132Z,99.99
2017-04-25T05:05:02.879Z,99.99
2017-04-25T05:10:03.673Z,99.99
2017-04-25T05:15:03.319Z,99.99
2017-04-25T05:20:03.027Z,99.99
2017-04-25T05:25:02.715Z,99.99
2017-04-25T05:30:03.298Z,99.99
2017-04-25T05:35:02.937Z,99.99
2017-04-25T05:40:02.801Z,99.99
2017-04-25T05:45:03.551Z,99.99
2017-04-25T05:50:03.284Z,99.99
2017-04-25T05:55:02.875Z,99.99
2017-04-25T06:00:03.633Z,99.99
2017-04-25T06:05:03.458Z,99.99
2017-04-25T06:10:03.333Z,99.99
2017-04-25T06:15:02.929Z,99.99
2017-04-25T06:20:03.759Z,99.99
2017-04-25T06:25:03.573Z,99.99
2017-04-25T06:30:03.292Z,99.99
2017-04-25T06:35:03.000Z,99.99
2017-04-25T06:40:03.672Z,99.99
2017-04-25T06:45:03.343Z,99.99
2017-04-25T06:50:03.075Z,99.99
2017-04-25T06:55:02.843Z,99.99
2017-04-25T07:00:03.582Z,99.99
2017-04-25T07:05:03.240Z,99.99
2017-04-25T07:10:02.940Z,99.99
2017-04-25T07:15:03.621Z,99.99
2017-04-25T07:20:03.494Z,99.99
2017-04-25T07:25:03.217Z,99.99
2017-04-25T07:30:02.988Z,99.99
2017-04-25T07:35:03.695Z,99.99
2017-04-25T07:40:03.415Z,99.99
2017-04-25T07:45:03.164Z,99.99
2017-04-25T07:50:02.831Z,99.99
2017-04-25T07:55:03.475Z,99.93
2017-04-25T08:00:03.267Z,98.36
2017-04-25T08:05:02.908Z,94.79
2017-04-25T08:10:03.716Z,93.89
2017-04-25T08:15:03.403Z,90.22
2017-04-25T08:20:03.466Z,88.31
2017-04-25T08:25:03.534Z,91.51
2017-04-25T08:30:02.958Z,90.89
2017-04-25T08:35:03.263Z,92.79
2017-04-25T08:40:03.178Z,90.6
2017-04-25T08:45:03.034Z,87.74
2017-04-25T08:50:03.400Z,86.07
2017-04-25T08:55:02.820Z,86.55
2017-04-25T09:00:03.192Z,86.41
2017-04-25T09:05:03.148Z,89.13
2017-04-25T09:10:03.746Z,90.8
2017-04-25T09:15:03.191Z,93.32
2017-04-25T09:20:03.327Z,99.99
2017-04-25T09:25:03.460Z,99.99
2017-04-25T09:30:03.736Z,99.99
2017-04-25T09:35:03.238Z,99.99
2017-04-25T09:40:03.716Z,98.94
2017-04-25T09:45:02.943Z,97.56
2017-04-25T09:50:03.364Z,94.89
2017-04-25T09:55:03.484Z,92.22
2017-04-25T10:00:02.774Z,89.59
2017-04-25T10:05:03.317Z,86.59
2017-04-25T10:10:03.719Z,87.64
2017-04-25T10:15:03.260Z,87.97
2017-04-25T10:20:03.347Z,84.69
2017-04-25T10:25:03.344Z,99.99
2017-04-25T10:30:03.630Z,99.99
2017-04-25T10:35:03.683Z,99.99
2017-04-25T10:40:03.283Z,99.99
2017-04-25T10:45:03.500Z,99.99
2017-04-25T10:50:02.925Z,99.99
2017-04-25T10:55:03.489Z,99.99
2017-04-25T11:00:02.897Z,88.87
2017-04-25T11:05:02.933Z,83.13
2017-04-25T11:10:03.435Z,78.01
2017-04-25T11:15:02.996Z,75.71
2017-04-25T11:20:03.571Z,73.54
2017-04-25T11:25:03.130Z,74.58
2017-04-25T11:30:03.689Z,74.43
2017-04-25T11:35:03.168Z,70.35
2017-04-25T11:40:02.893Z,68.84
2017-04-25T11:45:03.314Z,72.25
2017-04-25T11:50:02.878Z,70.62
2017-04-25T11:55:03.180Z,68.36
2017-04-25T12:00:03.614Z,66.61
2017-04-25T12:05:03.111Z,64.59
2017-04-25T12:10:03.662Z,63.38
2017-04-25T12:15:03.259Z,62.07
2017-04-25T12:20:03.703Z,60.82
2017-04-25T12:25:03.145Z,63.22
2017-04-25T12:30:03.578Z,60.22
2017-04-25T12:35:02.897Z,61.69
2017-04-25T12:40:03.289Z,60.72
2017-04-25T12:45:03.698Z,60.53
2017-04-25T12:50:03.246Z,61.08
2017-04-25T12:55:02.698Z,61.69
2017-04-25T13:00:03.283Z,61.24
2017-04-25T13:05:02.883Z,60.72
2017-04-25T13:10:02.753Z,60.38
2017-04-25T13:15:03.407Z,58.37
2017-04-25T13:20:03.130Z,56.76
2017-04-25T13:25:03.505Z,56.57
2017-04-25T13:30:03.129Z,57.95
2017-04-25T13:35:03.580Z,58.88
2017-04-25T13:40:03.337Z,57.51
2017-04-25T13:45:02.940Z,58.41
2017-04-25T13:50:03.457Z,59.41
2017-04-25T13:55:02.994Z,60.27
2017-04-25T14:00:03.684Z,60.39
2017-04-25T14:05:03.279Z,60.99
2017-04-25T14:10:02.899Z,60.93
2017-04-25T14:15:03.362Z,60.86
2017-04-25T14:20:02.800Z,60.96
2017-04-25T14:25:03.332Z,60.48
2017-04-25T14:30:02.822Z,60.48
2017-04-25T14:35:03.459Z,61.06
2017-04-25T14:40:02.887Z,63.23
2017-04-25T14:45:03.403Z,63.7
2017-04-25T14:50:02.927Z,63.76
2017-04-25T14:55:03.437Z,62.62
2017-04-25T15:00:03.096Z,62.74
2017-04-25T15:05:03.520Z,60.52
2017-04-25T15:10:03.025Z,65.07
2017-04-25T15:15:03.574Z,66.16
2017-04-25T15:20:03.172Z,66.38
2017-04-25T15:25:02.836Z,66.44
2017-04-25T15:30:03.344Z,64.43
2017-04-25T15:35:02.917Z,61.85
2017-04-25T15:40:03.563Z,58.14
2017-04-25T15:45:03.064Z,60.11
2017-04-25T15:50:02.811Z,61.99
2017-04-25T15:55:03.633Z,63
2017-04-25T16:00:03.341Z,64.43
2017-04-25T16:05:02.936Z,65.52
2017-04-25T16:10:03.425Z,62.72
2017-04-25T16:15:02.976Z,60.97
2017-04-25T16:20:03.493Z,60.97
2017-04-25T16:25:02.975Z,61.29
2017-04-25T16:30:03.541Z,58.91
2017-04-25T16:35:03.236Z,57.57
2017-04-25T16:40:02.791Z,55.95
2017-04-25T16:45:03.525Z,53.73
2017-04-25T16:50:03.090Z,57.99
2017-04-25T16:55:02.721Z,62.85
2017-04-25T17:00:03.508Z,65.03
2017-04-25T17:05:03.006Z,66.66
2017-04-25T17:10:03.519Z,67.41
2017-04-25T17:15:02.907Z,67.86
2017-04-25T17:20:03.413Z,68.15
2017-04-25T17:25:03.151Z,69
2017-04-25T17:30:03.553Z,70.3
2017-04-25T17:35:03.149Z,71.25
2017-04-25T17:40:03.716Z,72.3
2017-04-25T17:45:03.238Z,73.11
2017-04-25T17:50:03.614Z,74.26
2017-04-25T17:55:03.346Z,76.82
2017-04-25T18:00:02.954Z,78.25
2017-04-25T18:05:02.784Z,80.4
2017-04-25T18:10:03.285Z,81.73
2017-04-25T18:15:02.950Z,84.91
2017-04-25T18:20:03.472Z,86.63
2017-04-25T18:25:02.915Z,88.34
2017-04-25T18:30:03.355Z,90.61
2017-04-25T18:35:03.683Z,93.6
2017-04-25T18:40:03.244Z,94.93
2017-04-25T18:45:02.732Z,95.98
2017-04-25T18:50:03.184Z,98.54
2017-04-25T18:55:03.676Z,99.99
2017-04-25T19:00:03.177Z,99.99
2017-04-25T19:05:02.766Z,99.99
2017-04-25T19:10:03.414Z,99.99
2017-04-25T19:15:03.648Z,99.99
2017-04-25T19:20:02.976Z,99.99
2017-04-25T19:25:03.367Z,99.99
2017-04-25T19:30:02.831Z,99.99
2017-04-25T20:05:02.993Z,99.99
2017-04-25T20:15:02.861Z,99.99
2017-04-25T20:20:03.404Z,99.99
2017-04-25T20:25:02.847Z,99.99
2017-04-25T20:30:03.328Z,99.99
2017-04-25T20:40:03.397Z,99.99
2017-04-25T20:50:03.429Z,99.99
2017-04-25T21:10:03.748Z,99.99
2017-04-25T21:25:02.908Z,99.99
2017-04-25T21:30:03.486Z,99.99
2017-04-25T21:35:03.221Z,99.99
2017-04-25T21:40:03.451Z,99.99
2017-04-25T21:45:03.699Z,99.99
2017-04-25T21:50:03.763Z,99.99
2017-04-25T21:55:03.361Z,99.99
2017-04-25T22:00:02.900Z,99.99
2017-04-25T22:05:03.681Z,99.99
2017-04-25T22:10:03.603Z,99.99
2017-04-25T22:15:03.413Z,99.99
2017-04-25T22:20:03.162Z,99.99
2017-04-25T22:25:03.040Z,99.99
2017-04-25T22:30:02.954Z,99.99
2017-04-25T22:35:03.605Z,99.99
2017-04-25T22:40:03.429Z,99.99
2017-04-25T22:45:03.020Z,99.99
2017-04-25T22:50:03.620Z,99.99
2017-04-25T22:55:03.271Z,99.99
2017-04-25T23:00:02.996Z,99.99
2017-04-25T23:05:03.538Z,99.99
2017-04-25T23:10:03.312Z,99.99
2017-04-25T23:15:03.024Z,99.99
2017-04-25T23:20:03.645Z,99.99
2017-04-25T23:25:03.205Z,99.81
2017-04-25T23:30:03.179Z,99.95
2017-04-25T23:35:02.788Z,99.66
2017-04-25T23:40:03.619Z,99.57
2017-04-25T23:45:03.334Z,99.48
2017-04-25T23:50:03.118Z,99.66
2017-04-25T23:55:03.692Z,99.29
